Impacts TAF Board INFO
FOR SITUATIONAL AWARENESS. NOT TO BE USED FOR FLIGHT PLANNING PURPOSES.
IDs:

KSFO - San Francisco Intl, CA, US

Issued at 2338 UTC 27 May 2018
Updated at 0136 UTC 28 May 2018
Potential Impact None Slight Moderate High
Time<<28/14Z 28/15Z 28/16Z 28/17Z 28/18Z 28/19Z 28/20Z 28/21Z 28/22Z 28/23Z 29/00Z 29/01Z 29/02Z>>
Type PRVL PRVL PRVL PRVL PRVL PRVL PRVL PRVL PRVL PRVL PRVL PRVL PRVL
VIS >6 >6 >6 >6 >6 >6 >6 >6 >6 >6 >6 >6 >6
CIG -- -- -- -- -- -- -- -- -- -- -- -- --
Cover SKC SKC SKC SKC SKC SKC SKC SKC SKC SKC SKC SKC SKC
FltCat VFR VFR VFR VFR VFR VFR VFR VFR VFR VFR VFR VFR VFR
WX -- -- -- -- -- -- -- -- -- -- -- -- --
WDir VRB VRB 60 60 60 60 300 300 300 300 300 300 300
WSpd 4 4 4 4 4 4 15 15 15 15 19 19 19
WGst -- -- -- -- -- -- -- -- -- -- -- -- --

Raw TAF
KSFO 272338Z 2800/2906 29019KT P6SM FEW008
  FM280300 29008KT P6SM SKC
  FM280900 VRB04KT P6SM SKC
  FM281600 06004KT P6SM SKC
  FM282000 30015KT P6SM SKC
  FM290000 30019KT P6SM SKC
  FM290300 29009KT P6SM SKC


METAR Board
Radar Display
Forecast Discussion

FOR SITUATIONAL AWARENESS. NOT TO BE USED FOR FLIGHT PLANNING PURPOSES.